createdAt,value
2019-06-20T00:01:21.898Z,18.80
2019-06-20T00:03:48.670Z,19.14
2019-06-20T00:06:15.422Z,19.00
2019-06-20T00:08:42.199Z,19.18
2019-06-20T00:11:08.940Z,19.24
2019-06-20T00:13:35.718Z,19.16
2019-06-20T00:16:02.792Z,19.37
2019-06-20T00:18:29.572Z,19.39
2019-06-20T00:20:56.472Z,19.31
2019-06-20T00:23:23.083Z,19.36
2019-06-20T00:25:49.842Z,19.14
2019-06-20T00:28:16.644Z,19.11
2019-06-20T00:30:43.439Z,19.11
2019-06-20T00:33:10.222Z,19.05
2019-06-20T00:35:36.975Z,19.11
2019-06-20T00:38:03.763Z,19.13
2019-06-20T00:40:30.524Z,18.78
2019-06-20T00:42:57.287Z,18.50
2019-06-20T00:45:24.072Z,18.33
2019-06-20T00:47:50.876Z,18.33
2019-06-20T00:50:17.635Z,18.30
2019-06-20T00:52:44.407Z,18.53
2019-06-20T00:55:11.162Z,18.86
2019-06-20T00:57:37.955Z,18.93
2019-06-20T01:00:05.265Z,19.05
2019-06-20T01:02:32.016Z,18.80
2019-06-20T01:04:58.771Z,18.68
2019-06-20T01:07:25.528Z,18.51
2019-06-20T01:09:52.269Z,18.48
2019-06-20T01:12:19.075Z,18.54
2019-06-20T01:14:45.842Z,18.64
2019-06-20T01:17:13.703Z,19.02
2019-06-20T01:19:40.478Z,19.06
2019-06-20T01:22:07.388Z,18.82
2019-06-20T01:24:34.162Z,18.87
2019-06-20T01:27:00.983Z,18.54
2019-06-20T01:29:27.731Z,18.67
2019-06-20T01:31:54.482Z,18.39
2019-06-20T01:34:21.248Z,18.39
2019-06-20T01:36:48.010Z,18.57
2019-06-20T01:39:14.776Z,18.40
2019-06-20T01:41:41.533Z,18.49
2019-06-20T01:44:08.306Z,18.73
2019-06-20T01:46:35.069Z,18.53
2019-06-20T01:49:01.859Z,18.15
2019-06-20T01:51:28.678Z,17.97
2019-06-20T01:53:55.463Z,17.84
2019-06-20T01:56:22.262Z,17.88
2019-06-20T01:58:49.015Z,18.03
2019-06-20T02:01:15.774Z,18.13
2019-06-20T02:03:42.543Z,18.37
2019-06-20T02:06:09.309Z,18.42
2019-06-20T02:08:36.074Z,18.35
2019-06-20T02:11:02.841Z,18.41
2019-06-20T02:13:29.631Z,18.42
2019-06-20T02:15:56.438Z,18.32
2019-06-20T02:18:23.203Z,18.77
2019-06-20T02:20:51.098Z,18.34
2019-06-20T02:23:17.941Z,18.00
2019-06-20T02:25:44.731Z,18.16
2019-06-20T02:28:11.525Z,17.96
2019-06-20T02:30:38.292Z,17.93
2019-06-20T02:33:05.065Z,17.74
2019-06-20T02:35:31.845Z,17.58
2019-06-20T02:37:58.577Z,17.77
2019-06-20T02:40:25.360Z,17.89
2019-06-20T02:42:52.152Z,17.91
2019-06-20T02:45:18.908Z,17.82
2019-06-20T02:47:45.653Z,17.60
2019-06-20T02:50:12.416Z,17.51
2019-06-20T02:52:39.160Z,17.69
2019-06-20T02:55:05.911Z,17.44
2019-06-20T02:57:32.688Z,17.38
2019-06-20T02:59:59.454Z,17.46
2019-06-20T03:02:26.261Z,17.58
2019-06-20T03:04:53.019Z,17.63
2019-06-20T03:07:19.762Z,17.71
2019-06-20T03:09:46.512Z,17.83
2019-06-20T03:12:13.254Z,17.77
2019-06-20T03:14:45.381Z,17.85
2019-06-20T03:17:06.935Z,17.81
2019-06-20T03:19:33.700Z,17.89
2019-06-20T03:22:00.443Z,18.06
2019-06-20T03:24:27.226Z,18.12
2019-06-20T03:26:53.992Z,18.15
2019-06-20T03:29:20.754Z,17.99
2019-06-20T03:31:47.541Z,17.92
2019-06-20T03:34:14.310Z,17.96
2019-06-20T03:36:41.031Z,18.00
2019-06-20T03:39:07.795Z,17.94
2019-06-20T03:41:34.538Z,17.73
2019-06-20T03:44:01.307Z,17.78
2019-06-20T03:46:28.050Z,17.72
2019-06-20T03:48:54.820Z,17.71
2019-06-20T03:51:21.580Z,17.78
2019-06-20T03:53:48.342Z,17.74
2019-06-20T03:56:15.108Z,17.90
2019-06-20T03:58:41.842Z,18.01
2019-06-20T04:01:08.619Z,18.09
2019-06-20T04:03:35.359Z,18.30
2019-06-20T04:06:02.123Z,18.46
2019-06-20T04:08:28.875Z,18.52
2019-06-20T04:10:55.640Z,18.54
2019-06-20T04:13:22.390Z,18.66
2019-06-20T04:15:49.215Z,18.63
2019-06-20T04:18:15.947Z,18.63
2019-06-20T04:20:42.714Z,18.79
2019-06-20T04:23:09.460Z,18.85
2019-06-20T04:25:36.242Z,18.94
2019-06-20T04:28:02.996Z,19.27
2019-06-20T04:30:29.788Z,19.50
2019-06-20T04:32:56.522Z,19.35
2019-06-20T04:35:23.316Z,19.24
2019-06-20T04:37:50.095Z,19.25
2019-06-20T04:40:16.858Z,19.25
2019-06-20T04:42:43.613Z,19.31
2019-06-20T04:45:34.698Z,19.26
2019-06-20T04:47:51.737Z,18.98
2019-06-20T04:50:18.497Z,18.97
2019-06-20T04:52:45.248Z,19.08
2019-06-20T04:55:12.008Z,19.09
2019-06-20T04:57:38.762Z,19.21
2019-06-20T05:00:05.523Z,19.51
2019-06-20T05:02:33.292Z,19.34
2019-06-20T05:05:00.282Z,19.63
2019-06-20T05:07:27.007Z,19.60
2019-06-20T05:09:53.790Z,19.49
2019-06-20T05:12:20.996Z,19.59
2019-06-20T05:14:47.763Z,19.56
2019-06-20T05:17:14.509Z,19.49
2019-06-20T05:19:41.267Z,19.98
2019-06-20T05:22:08.021Z,20.09
2019-06-20T05:24:34.851Z,20.45
2019-06-20T05:27:01.606Z,20.27
2019-06-20T05:29:28.371Z,20.33
2019-06-20T05:31:55.147Z,20.01
2019-06-20T05:34:21.890Z,20.02
2019-06-20T05:36:48.867Z,20.27
2019-06-20T05:39:15.614Z,20.05
2019-06-20T05:41:42.528Z,20.08
2019-06-20T05:44:09.170Z,20.10
2019-06-20T05:46:35.943Z,20.42
2019-06-20T05:49:02.714Z,21.09
2019-06-20T05:51:29.479Z,21.30
2019-06-20T05:53:56.244Z,20.79
2019-06-20T05:56:23.018Z,20.68
2019-06-20T05:58:50.583Z,20.71
2019-06-20T06:01:16.543Z,20.47
2019-06-20T06:03:43.296Z,20.54
2019-06-20T06:06:10.067Z,20.67
2019-06-20T06:08:36.861Z,21.02
2019-06-20T06:11:03.834Z,21.21
2019-06-20T06:13:30.612Z,21.63
2019-06-20T06:15:57.404Z,21.28
2019-06-20T06:18:24.147Z,20.89
2019-06-20T06:20:50.936Z,21.19
2019-06-20T06:23:17.708Z,21.48
2019-06-20T06:25:44.571Z,21.58
2019-06-20T06:28:12.557Z,21.23
2019-06-20T06:30:38.237Z,21.04
2019-06-20T06:33:04.983Z,20.92
2019-06-20T06:35:31.754Z,20.81
2019-06-20T06:37:58.527Z,20.67
2019-06-20T06:40:25.298Z,20.49
2019-06-20T06:42:52.073Z,20.57
2019-06-20T06:45:18.884Z,20.42
2019-06-20T06:47:45.736Z,20.20
2019-06-20T06:50:12.495Z,20.64
2019-06-20T06:52:39.258Z,21.29
2019-06-20T06:55:06.041Z,21.73
2019-06-20T06:57:32.808Z,22.00
2019-06-20T06:59:59.600Z,21.95
2019-06-20T07:02:26.328Z,22.18
2019-06-20T07:04:53.072Z,22.26
2019-06-20T07:07:19.839Z,22.30
2019-06-20T07:09:46.578Z,22.13
2019-06-20T07:12:13.378Z,21.83
2019-06-20T07:14:42.703Z,22.30
2019-06-20T07:17:06.946Z,23.57
2019-06-20T07:19:33.683Z,23.33
2019-06-20T07:22:00.468Z,23.61
2019-06-20T07:24:27.198Z,23.53
2019-06-20T07:26:53.959Z,22.89
2019-06-20T07:29:20.794Z,22.31
2019-06-20T07:31:47.550Z,23.23
2019-06-20T07:34:14.275Z,22.89
2019-06-20T07:36:41.039Z,23.52
2019-06-20T07:39:08.307Z,23.17
2019-06-20T07:41:35.147Z,23.37
2019-06-20T07:44:01.922Z,23.46
2019-06-20T07:46:29.518Z,23.41
2019-06-20T07:48:58.382Z,23.22
2019-06-20T07:51:27.329Z,22.85
2019-06-20T07:53:54.233Z,23.42
2019-06-20T07:56:22.364Z,23.60
2019-06-20T07:58:49.103Z,23.18
2019-06-20T08:01:16.650Z,23.41
2019-06-20T08:03:45.265Z,23.43
2019-06-20T08:06:10.268Z,24.26
2019-06-20T08:08:37.051Z,23.97
2019-06-20T08:11:03.811Z,23.83
2019-06-20T08:13:30.564Z,23.77
2019-06-20T08:15:57.806Z,23.67
2019-06-20T08:18:24.553Z,24.01
2019-06-20T08:20:51.422Z,24.21
2019-06-20T08:23:18.233Z,24.79
2019-06-20T08:25:45.072Z,24.53
2019-06-20T08:28:11.970Z,25.19
2019-06-20T08:30:38.724Z,24.23
2019-06-20T08:33:11.714Z,24.80
2019-06-20T08:35:32.443Z,24.90
2019-06-20T08:38:00.957Z,24.38
2019-06-20T08:40:26.137Z,24.36
2019-06-20T08:42:53.124Z,23.63
2019-06-20T08:45:20.070Z,23.53
2019-06-20T08:47:46.947Z,23.86
2019-06-20T08:50:13.796Z,24.12
2019-06-20T08:52:40.664Z,24.55
2019-06-20T08:55:07.443Z,25.59
2019-06-20T08:57:34.247Z,26.11
2019-06-20T09:00:01.035Z,26.10
2019-06-20T09:02:27.827Z,25.79
2019-06-20T09:04:55.213Z,24.82
2019-06-20T09:07:21.418Z,23.98
2019-06-20T09:09:48.168Z,24.29
2019-06-20T09:12:14.923Z,24.74
2019-06-20T09:14:41.718Z,24.10
2019-06-20T09:17:08.516Z,23.69
2019-06-20T09:19:35.219Z,24.00
2019-06-20T09:22:02.020Z,24.67
2019-06-20T09:24:28.846Z,24.67
2019-06-20T09:26:55.728Z,24.53
2019-06-20T09:29:22.562Z,24.43
2019-06-20T09:31:49.346Z,25.01
2019-06-20T09:34:16.187Z,25.75
2019-06-20T09:36:45.198Z,26.51
2019-06-20T09:39:11.972Z,27.50
2019-06-20T09:41:38.757Z,25.96
2019-06-20T09:44:05.576Z,25.89
2019-06-20T09:46:32.397Z,26.50
2019-06-20T09:48:59.155Z,26.81
2019-06-20T09:51:26.003Z,26.48
2019-06-20T09:53:53.881Z,26.08
2019-06-20T09:56:19.626Z,26.47
2019-06-20T09:58:47.853Z,26.79
2019-06-20T10:01:13.195Z,26.79
2019-06-20T10:03:40.013Z,26.84
2019-06-20T10:06:14.133Z,26.24
2019-06-20T10:08:33.687Z,26.58
2019-06-20T10:11:00.514Z,26.49
2019-06-20T10:13:27.286Z,26.08
2019-06-20T10:15:54.047Z,26.39
2019-06-20T10:18:20.859Z,27.68
2019-06-20T10:20:48.844Z,26.12
2019-06-20T10:23:14.531Z,26.79
2019-06-20T10:25:41.436Z,27.11
2019-06-20T10:28:08.347Z,27.48
2019-06-20T10:30:35.091Z,26.82
2019-06-20T10:33:01.903Z,25.57
2019-06-20T10:35:28.649Z,25.23
2019-06-20T10:37:56.983Z,25.24
2019-06-20T10:40:22.614Z,25.00
2019-06-20T10:42:50.247Z,24.77
2019-06-20T10:45:16.421Z,24.69
2019-06-20T10:47:44.079Z,24.42
2019-06-20T10:50:10.098Z,24.38
2019-06-20T10:52:36.877Z,24.69
2019-06-20T10:55:04.362Z,24.52
2019-06-20T10:57:31.170Z,24.75
2019-06-20T10:59:57.919Z,24.72
2019-06-20T11:02:24.689Z,24.83
2019-06-20T11:04:51.475Z,24.87
2019-06-20T11:07:18.272Z,24.42
2019-06-20T11:09:45.246Z,24.46
2019-06-20T11:12:11.766Z,24.86
2019-06-20T11:14:39.139Z,24.80
2019-06-20T11:17:05.362Z,24.92
2019-06-20T11:19:32.200Z,25.08
2019-06-20T11:21:58.983Z,25.08
2019-06-20T11:24:25.746Z,25.76
2019-06-20T11:26:53.557Z,26.43
2019-06-20T11:29:20.367Z,27.02
2019-06-20T11:31:48.246Z,26.54
2019-06-20T11:34:13.991Z,26.64
2019-06-20T11:36:40.752Z,25.62
2019-06-20T11:39:07.587Z,25.65
2019-06-20T11:41:34.962Z,25.06
2019-06-20T11:44:01.159Z,25.89
2019-06-20T11:46:28.050Z,25.92
2019-06-20T11:48:54.800Z,26.51
2019-06-20T11:51:21.566Z,26.36
2019-06-20T11:53:48.446Z,26.24
2019-06-20T11:56:15.206Z,25.86
2019-06-20T11:58:42.023Z,26.31
2019-06-20T12:01:08.764Z,26.36
2019-06-20T12:03:35.983Z,26.03
2019-06-20T12:06:02.724Z,26.18
2019-06-20T12:08:29.509Z,26.18
2019-06-20T12:10:56.340Z,26.32
2019-06-20T12:13:23.068Z,26.13
2019-06-20T12:15:49.875Z,25.99
2019-06-20T12:18:16.643Z,25.90
2019-06-20T12:20:44.504Z,25.30
2019-06-20T12:23:10.169Z,25.59
2019-06-20T12:25:39.062Z,25.57
2019-06-20T12:28:03.764Z,26.27
2019-06-20T12:30:30.598Z,25.74
2019-06-20T12:32:57.450Z,25.67
2019-06-20T12:35:24.204Z,25.66
2019-06-20T12:37:52.134Z,25.75
2019-06-20T12:40:17.739Z,25.95
2019-06-20T12:42:44.860Z,25.34
2019-06-20T12:45:12.875Z,26.01
2019-06-20T12:47:40.237Z,26.02
2019-06-20T12:50:06.371Z,25.76
2019-06-20T12:52:33.197Z,25.90
2019-06-20T12:54:59.939Z,25.56
2019-06-20T12:57:26.721Z,25.80
2019-06-20T12:59:53.510Z,26.01
2019-06-20T13:02:20.308Z,25.63
2019-06-20T13:04:47.124Z,25.58
2019-06-20T13:07:13.895Z,25.91
2019-06-20T13:09:42.116Z,25.44
2019-06-20T13:12:07.439Z,25.59
2019-06-20T13:14:34.232Z,26.25
2019-06-20T13:17:01.071Z,25.20
2019-06-20T13:19:27.946Z,24.80
2019-06-20T13:21:54.723Z,24.55
2019-06-20T13:24:21.521Z,25.00
2019-06-20T13:26:49.007Z,24.85
2019-06-20T13:29:15.511Z,24.88
2019-06-20T13:31:58.456Z,24.94
2019-06-20T13:34:09.605Z,24.37
2019-06-20T13:36:36.396Z,24.85
2019-06-20T13:39:04.921Z,24.34
2019-06-20T13:41:32.475Z,24.24
2019-06-20T13:43:59.279Z,24.04
2019-06-20T13:46:26.047Z,23.99
2019-06-20T13:48:52.971Z,24.15
2019-06-20T13:51:21.539Z,24.05
2019-06-20T13:53:48.648Z,24.24
2019-06-20T13:56:15.060Z,24.10
2019-06-20T13:58:42.298Z,24.14
2019-06-20T14:01:08.579Z,23.92
2019-06-20T14:03:35.346Z,23.87
2019-06-20T14:06:02.103Z,23.45
2019-06-20T14:08:28.886Z,23.44
2019-06-20T14:10:55.680Z,23.63
2019-06-20T14:13:22.466Z,23.49
2019-06-20T14:15:49.211Z,23.67
2019-06-20T14:18:15.984Z,23.95
2019-06-20T14:20:44.573Z,24.06
2019-06-20T14:23:09.556Z,23.60
2019-06-20T14:25:36.273Z,23.72
2019-06-20T14:28:03.058Z,23.63
2019-06-20T14:30:29.860Z,23.57
2019-06-20T14:32:56.651Z,23.61
2019-06-20T14:35:23.439Z,23.80
2019-06-20T14:37:51.816Z,23.96
2019-06-20T14:40:16.961Z,23.69
2019-06-20T14:42:44.538Z,24.20
2019-06-20T14:45:10.491Z,24.10
2019-06-20T14:47:37.242Z,24.32
2019-06-20T14:50:04.678Z,25.00
2019-06-20T14:52:31.437Z,25.40
2019-06-20T14:54:58.212Z,26.01
2019-06-20T14:57:24.951Z,25.73
2019-06-20T14:59:52.650Z,25.70
2019-06-20T15:02:18.489Z,25.53
2019-06-20T15:04:46.230Z,26.05
2019-06-20T15:07:12.031Z,26.53
2019-06-20T15:09:38.809Z,26.13
2019-06-20T15:12:05.555Z,25.86
2019-06-20T15:14:32.319Z,25.70
2019-06-20T15:16:59.072Z,25.93
2019-06-20T15:19:25.859Z,25.53
2019-06-20T15:21:52.621Z,25.50
2019-06-20T15:24:19.442Z,25.61
2019-06-20T15:26:47.655Z,26.09
2019-06-20T15:29:12.934Z,25.78
2019-06-20T15:31:39.754Z,25.30
2019-06-20T15:34:06.517Z,24.83
2019-06-20T15:36:33.280Z,25.14
2019-06-20T15:39:00.123Z,25.04
2019-06-20T15:41:26.860Z,25.22
2019-06-20T15:43:53.824Z,26.03
2019-06-20T15:46:20.415Z,26.19
2019-06-20T15:48:47.171Z,26.12
2019-06-20T15:51:13.907Z,26.31
2019-06-20T15:53:40.674Z,25.27
2019-06-20T15:56:07.479Z,25.53
2019-06-20T15:58:34.246Z,25.75
2019-06-20T16:01:01.000Z,25.62
2019-06-20T16:03:28.001Z,25.37
2019-06-20T16:05:55.683Z,25.30
2019-06-20T16:08:22.461Z,25.53
2019-06-20T16:10:49.235Z,25.53
2019-06-20T16:13:16.007Z,25.57
2019-06-20T16:15:42.817Z,25.84
2019-06-20T16:18:09.559Z,26.11
2019-06-20T16:20:36.327Z,25.45
2019-06-20T16:23:03.080Z,25.56
2019-06-20T16:25:29.843Z,25.94
2019-06-20T16:27:56.610Z,25.88
2019-06-20T16:30:23.372Z,25.46
2019-06-20T16:32:50.123Z,25.69
2019-06-20T16:35:16.891Z,25.60
2019-06-20T16:37:43.635Z,25.62
2019-06-20T16:40:10.450Z,25.77
2019-06-20T16:42:37.206Z,25.42
2019-06-20T16:45:04.310Z,25.30
2019-06-20T16:47:31.076Z,25.23
2019-06-20T16:49:57.831Z,25.22
2019-06-20T16:52:24.571Z,25.15
2019-06-20T16:54:51.406Z,25.35
2019-06-20T16:57:18.152Z,25.51
2019-06-20T16:59:44.932Z,25.42
2019-06-20T17:02:11.728Z,25.17
2019-06-20T17:04:38.530Z,25.18
2019-06-20T17:07:05.278Z,25.24
2019-06-20T17:09:32.064Z,25.16
2019-06-20T17:11:58.836Z,24.92
2019-06-20T17:14:25.662Z,24.85
2019-06-20T17:16:52.347Z,24.62
2019-06-20T17:19:19.102Z,24.42
2019-06-20T17:21:45.839Z,24.78
2019-06-20T17:24:12.623Z,24.85
2019-06-20T17:26:39.395Z,24.70
2019-06-20T17:29:06.135Z,24.72
2019-06-20T17:31:32.902Z,25.41
2019-06-20T17:33:59.663Z,26.12
2019-06-20T17:36:26.418Z,26.81
2019-06-20T17:38:53.211Z,27.29
2019-06-20T17:41:19.971Z,27.60
2019-06-20T17:43:46.718Z,28.11
2019-06-20T17:46:13.459Z,27.46
2019-06-20T17:48:40.290Z,26.75
2019-06-20T17:51:07.038Z,27.14
2019-06-20T17:53:34.866Z,28.09
2019-06-20T17:56:01.770Z,27.45
2019-06-20T17:58:28.492Z,27.64
2019-06-20T18:00:55.390Z,27.87
2019-06-20T18:03:22.094Z,27.75
2019-06-20T18:05:48.877Z,27.41
2019-06-20T18:08:15.772Z,26.80
2019-06-20T18:10:43.412Z,27.64
2019-06-20T18:13:10.138Z,27.92
2019-06-20T18:15:36.902Z,27.54
2019-06-20T18:18:03.663Z,27.53
2019-06-20T18:20:30.437Z,27.82
2019-06-20T18:22:57.172Z,27.76
2019-06-20T18:25:23.934Z,27.52
2019-06-20T18:27:50.811Z,28.09
2019-06-20T18:30:17.581Z,26.97
2019-06-20T18:32:44.335Z,27.21
2019-06-20T18:35:11.163Z,27.39
2019-06-20T18:37:37.914Z,26.59
2019-06-20T18:40:04.900Z,25.92
2019-06-20T18:42:31.667Z,24.85
2019-06-20T18:44:58.440Z,23.92
2019-06-20T18:47:25.209Z,23.66
2019-06-20T18:49:52.079Z,23.16
2019-06-20T18:52:18.855Z,22.68
2019-06-20T18:54:45.610Z,23.01
2019-06-20T18:57:12.373Z,22.79
2019-06-20T18:59:39.146Z,22.63
2019-06-20T19:02:06.627Z,22.70
2019-06-20T19:04:46.312Z,22.41
2019-06-20T19:07:00.051Z,22.58
2019-06-20T19:09:26.839Z,22.17
2019-06-20T19:11:53.652Z,22.23
2019-06-20T19:14:20.606Z,22.23
2019-06-20T19:16:47.342Z,22.12
2019-06-20T19:19:14.100Z,21.92
2019-06-20T19:21:40.850Z,21.86
2019-06-20T19:24:07.607Z,21.89
2019-06-20T19:26:34.434Z,21.50
2019-06-20T19:29:01.207Z,21.59
2019-06-20T19:31:27.945Z,21.61
2019-06-20T19:33:54.739Z,21.52
2019-06-20T19:36:21.497Z,21.24
2019-06-20T19:38:48.266Z,21.31
2019-06-20T19:41:15.079Z,21.44
2019-06-20T19:43:41.863Z,21.44
2019-06-20T19:46:08.647Z,21.55
2019-06-20T19:48:36.991Z,21.52
2019-06-20T19:51:03.312Z,21.77
2019-06-20T19:53:30.088Z,21.58
2019-06-20T19:55:56.881Z,21.41
2019-06-20T19:58:23.723Z,21.37
2019-06-20T20:00:50.495Z,21.46
2019-06-20T20:03:17.250Z,21.35
2019-06-20T20:05:44.101Z,21.37
2019-06-20T20:08:10.931Z,21.43
2019-06-20T20:10:41.850Z,21.24
2019-06-20T20:13:08.573Z,21.37
2019-06-20T20:15:35.352Z,21.30
2019-06-20T20:18:02.118Z,21.34
2019-06-20T20:20:28.886Z,21.43
2019-06-20T20:22:55.645Z,21.71
2019-06-20T20:25:22.418Z,21.39
2019-06-20T20:27:49.176Z,21.15
2019-06-20T20:30:16.091Z,20.88
2019-06-20T20:32:42.831Z,20.96
2019-06-20T20:35:09.623Z,20.71
2019-06-20T20:37:36.413Z,20.70
2019-06-20T20:40:03.881Z,20.54
2019-06-20T20:42:30.629Z,20.72
2019-06-20T20:44:57.439Z,20.29
2019-06-20T20:47:24.186Z,20.33
2019-06-20T20:49:50.971Z,20.21
2019-06-20T20:52:17.745Z,19.97
2019-06-20T20:54:44.535Z,20.01
2019-06-20T20:57:11.355Z,19.93
2019-06-20T20:59:38.131Z,19.74
2019-06-20T21:02:04.908Z,19.47
2019-06-20T21:04:31.679Z,19.12
2019-06-20T21:06:58.426Z,19.15
2019-06-20T21:09:25.258Z,19.06
2019-06-20T21:11:51.989Z,19.10
2019-06-20T21:14:18.778Z,18.91
2019-06-20T21:16:45.582Z,18.77
2019-06-20T21:19:12.350Z,18.77
2019-06-20T21:21:39.167Z,18.58
2019-06-20T21:24:05.967Z,18.57
2019-06-20T21:26:48.255Z,18.43
2019-06-20T21:28:59.508Z,18.13
2019-06-20T21:31:26.286Z,18.07
2019-06-20T21:33:54.489Z,18.20
2019-06-20T21:36:19.853Z,18.15
2019-06-20T21:38:46.623Z,18.32
2019-06-20T21:41:13.386Z,18.65
2019-06-20T21:43:40.252Z,18.84
2019-06-20T21:46:07.091Z,19.00
2019-06-20T21:48:33.876Z,18.89
2019-06-20T21:51:00.781Z,18.86
2019-06-20T21:53:27.559Z,18.87
2019-06-20T21:55:54.364Z,18.96
2019-06-20T21:58:21.107Z,18.93
2019-06-20T22:00:48.530Z,18.61
2019-06-20T22:03:15.342Z,18.60
2019-06-20T22:05:42.062Z,18.68
2019-06-20T22:08:08.806Z,18.80
2019-06-20T22:10:35.628Z,18.87
2019-06-20T22:13:03.482Z,19.08
2019-06-20T22:15:30.256Z,18.97
2019-06-20T22:17:57.052Z,18.91
2019-06-20T22:20:23.807Z,18.74
2019-06-20T22:22:50.562Z,18.88
2019-06-20T22:25:17.446Z,18.99
2019-06-20T22:27:44.169Z,19.18
2019-06-20T22:30:11.019Z,19.25
2019-06-20T22:32:37.775Z,19.26
2019-06-20T22:35:04.774Z,19.21
2019-06-20T22:37:31.537Z,19.42
2019-06-20T22:39:58.355Z,19.44
2019-06-20T22:42:25.093Z,19.84
2019-06-20T22:44:51.866Z,19.44
2019-06-20T22:47:18.606Z,19.82
2019-06-20T22:49:45.421Z,19.40
2019-06-20T22:52:12.271Z,19.37
2019-06-20T22:54:39.022Z,19.00
2019-06-20T22:57:05.785Z,19.60
2019-06-20T22:59:32.603Z,19.14
2019-06-20T23:01:59.410Z,19.07
2019-06-20T23:04:26.168Z,19.10
2019-06-20T23:06:56.794Z,19.03
2019-06-20T23:09:19.699Z,19.26
2019-06-20T23:11:46.507Z,19.05
2019-06-20T23:14:13.336Z,18.91
2019-06-20T23:16:40.093Z,18.99
2019-06-20T23:19:06.882Z,18.92
2019-06-20T23:21:33.647Z,18.97
2019-06-20T23:24:00.428Z,18.74
2019-06-20T23:26:27.179Z,18.51
2019-06-20T23:28:59.814Z,18.35
2019-06-20T23:31:26.607Z,18.36
2019-06-20T23:33:53.345Z,18.48
2019-06-20T23:36:20.135Z,18.38
2019-06-20T23:38:46.875Z,18.38
2019-06-20T23:41:13.667Z,18.25
2019-06-20T23:43:40.417Z,18.73
2019-06-20T23:46:07.209Z,18.54
2019-06-20T23:48:33.954Z,18.60
2019-06-20T23:51:00.783Z,18.67
2019-06-20T23:53:27.546Z,18.78
2019-06-20T23:55:54.371Z,18.74
2019-06-20T23:58:21.160Z,18.89
